Station Historical Data
Daily Summary for August 9, 2017 Units:  Both    English   Metric
« Previous Day
Next Day »
Daily Weekly Monthly Yearly Custom
  High: Low: Average:
Temperature: 80.3 °F /  26.8 °C 61.8 °F /  16.6 °C 71 °F /  21.7 °C
Dew Point: 66.4 °F /  19.1 °C 55.3 °F /  12.9 °C 60.9 °F /  16.1 °C
Humidity: 88% 52% 72%
Wind Speed: 12.0mph /  19.3km/h - 3.4mph /  5.5km/h
Wind Gust: 19.0mph /  30.6km/h - -
Wind- - SW
Pressure: 30.19 in /  1022.2 hPa 30.10 in /  1019.2 hPa -
Precipitation: 0.00 in /  0 mm    
Historical Graphs
 
 
Tabular Data for August 9, 2017
Time Temperature Dew Point Pressure Wind Wind Speed Wind Gust Humidity Rainfall Rate (Hourly)
00:04 69.1 °F /  20.6 °C 63.0 °F /  17.2 °C 30.10in /  1019.2hPa SW 5.0mph /  8km/h 9.0mph /  14.5km/h 81% 0.00in /  0mm
00:09 69.0 °F /  20.6 °C 63.3 °F /  17.4 °C 30.10in /  1019.2hPa SW 3.0mph /  4.8km/h 9.0mph /  14.5km/h 82% 0.00in /  0mm
00:14 69.0 °F /  20.6 °C 63.3 °F /  17.4 °C 30.10in /  1019.2hPa SW 3.0mph /  4.8km/h 9.0mph /  14.5km/h 82% 0.00in /  0mm
00:19 68.9 °F /  20.5 °C 63.2 °F /  17.3 °C 30.10in /  1019.2hPa SSW 3.0mph /  4.8km/h 8.0mph /  12.9km/h 82% 0.00in /  0mm
00:24 68.2 °F /  20.1 °C 62.1 °F /  16.7 °C 30.10in /  1019.2hPa SSW 2.0mph /  3.2km/h 8.0mph /  12.9km/h 81% 0.00in /  0mm
00:29 67.6 °F /  19.8 °C 61.9 °F /  16.6 °C 30.10in /  1019.2hPa SW 2.0mph /  3.2km/h 5.0mph /  8km/h 82% 0.00in /  0mm
00:34 67.4 °F /  19.7 °C 62.1 °F /  16.7 °C 30.10in /  1019.2hPa SSW 2.0mph /  3.2km/h 5.0mph /  8km/h 83% 0.00in /  0mm
00:39 67.2 °F /  19.6 °C 61.9 °F /  16.6 °C 30.10in /  1019.2hPa SW 1.0mph /  1.6km/h 3.0mph /  4.8km/h 83% 0.00in /  0mm
00:44 66.9 °F /  19.4 °C 61.6 °F /  16.4 °C 30.10in /  1019.2hPa SSW 2.0mph /  3.2km/h 6.0mph /  9.7km/h 83% 0.00in /  0mm
00:49 66.7 °F /  19.3 °C 61.7 °F /  16.5 °C 30.10in /  1019.2hPa SSW 2.0mph /  3.2km/h 7.0mph /  11.3km/h 84% 0.00in /  0mm
00:54 66.6 °F /  19.2 °C 61.6 °F /  16.4 °C 30.10in /  1019.2hPa SSW 2.0mph /  3.2km/h 7.0mph /  11.3km/h 84% 0.00in /  0mm
00:59 66.4 °F /  19.1 °C 61.1 °F /  16.2 °C 30.11in /  1019.5hPa SSW 5.0mph /  8km/h 6.0mph /  9.7km/h 83% 0.00in /  0mm
01:04 65.9 °F /  18.8 °C 60.6 °F /  15.9 °C 30.11in /  1019.5hPa SW 2.0mph /  3.2km/h 7.0mph /  11.3km/h 83% 0.00in /  0mm
01:09 65.5 °F /  18.6 °C 60.2 °F /  15.7 °C 30.11in /  1019.5hPa SSW 3.0mph /  4.8km/h 4.0mph /  6.4km/h 83% 0.00in /  0mm
01:14 65.3 °F /  18.5 °C 60.3 °F /  15.7 °C 30.11in /  1019.5hPa SSW 2.0mph /  3.2km/h 5.0mph /  8km/h 84% 0.00in /  0mm
01:19 65.2 °F /  18.4 °C 60.2 °F /  15.7 °C 30.11in /  1019.5hPa SSW 2.0mph /  3.2km/h 5.0mph /  8km/h 84% 0.00in /  0mm
01:24 65.2 °F /  18.4 °C 60.2 °F /  15.7 °C 30.11in /  1019.5hPa SSW 3.0mph /  4.8km/h 6.0mph /  9.7km/h 84% 0.00in /  0mm
01:29 65.2 °F /  18.4 °C 60.6 °F /  15.9 °C 30.11in /  1019.5hPa SSW 3.0mph /  4.8km/h 6.0mph /  9.7km/h 85% 0.00in /  0mm
01:34 65.1 °F /  18.4 °C 60.5 °F /  15.8 °C 30.11in /  1019.5hPa Calm   4.0mph /  6.4km/h 85% 0.00in /  0mm
01:39 65.0 °F /  18.3 °C 60.4 °F /  15.8 °C 30.11in /  1019.5hPa Calm   4.0mph /  6.4km/h 85% 0.00in /  0mm
01:44 64.9 °F /  18.3 °C 60.3 °F /  15.7 °C 30.11in /  1019.5hPa Calm     85% 0.00in /  0mm
01:49 64.8 °F /  18.2 °C 60.2 °F /  15.7 °C 30.11in /  1019.5hPa Calm   1.0mph /  1.6km/h 85% 0.00in /  0mm
01:54 64.6 °F /  18.1 °C 60.0 °F /  15.6 °C 30.11in /  1019.5hPa Calm   2.0mph /  3.2km/h 85% 0.00in /  0mm
01:59 64.4 °F /  18 °C 60.1 °F /  15.6 °C 30.11in /  1019.5hPa Calm   2.0mph /  3.2km/h 86% 0.00in /  0mm
02:04 64.2 °F /  17.9 °C 59.9 °F /  15.5 °C 30.11in /  1019.5hPa Calm     86% 0.00in /  0mm
02:09 64.0 °F /  17.8 °C 59.7 °F /  15.4 °C 30.11in /  1019.5hPa Calm   2.0mph /  3.2km/h 86% 0.00in /  0mm
02:14 64.0 °F /  17.8 °C 60.1 °F /  15.6 °C 30.11in /  1019.5hPa Calm     87% 0.00in /  0mm
02:19 63.9 °F /  17.7 °C 60.0 °F /  15.6 °C 30.11in /  1019.5hPa Calm   2.0mph /  3.2km/h 87% 0.00in /  0mm
02:24 64.0 °F /  17.8 °C 60.1 °F /  15.6 °C 30.11in /  1019.5hPa Calm   3.0mph /  4.8km/h 87% 0.00in /  0mm
02:29 64.2 °F /  17.9 °C 60.6 °F /  15.9 °C 30.11in /  1019.5hPa Calm   5.0mph /  8km/h 88% 0.00in /  0mm
02:34 64.5 °F /  18.1 °C 60.5 °F /  15.8 °C 30.11in /  1019.5hPa Calm   5.0mph /  8km/h 87% 0.00in /  0mm
02:39 64.7 °F /  18.2 °C 60.7 °F /  15.9 °C 30.11in /  1019.5hPa SW 2.0mph /  3.2km/h 4.0mph /  6.4km/h 87% 0.00in /  0mm
02:44 64.7 °F /  18.2 °C 60.7 °F /  15.9 °C 30.11in /  1019.5hPa SSW 2.0mph /  3.2km/h 4.0mph /  6.4km/h 87% 0.00in /  0mm
02:49 64.7 °F /  18.2 °C 60.7 °F /  15.9 °C 30.11in /  1019.5hPa SSW 1.0mph /  1.6km/h 4.0mph /  6.4km/h 87% 0.00in /  0mm
02:54 64.7 °F /  18.2 °C 60.4 °F /  15.8 °C 30.11in /  1019.5hPa SSW 1.0mph /  1.6km/h 4.0mph /  6.4km/h 86% 0.00in /  0mm
02:59 64.4 °F /  18 °C 60.1 °F /  15.6 °C 30.11in /  1019.5hPa Calm   3.0mph /  4.8km/h 86% 0.00in /  0mm
03:04 64.0 °F /  17.8 °C 60.1 °F /  15.6 °C 30.11in /  1019.5hPa SW 3.0mph /  4.8km/h 4.0mph /  6.4km/h 87% 0.00in /  0mm
03:09 64.0 °F /  17.8 °C 60.1 °F /  15.6 °C 30.11in /  1019.5hPa SW 2.0mph /  3.2km/h 3.0mph /  4.8km/h 87% 0.00in /  0mm
03:14 64.0 °F /  17.8 °C 60.1 °F /  15.6 °C 30.11in /  1019.5hPa SSW 1.0mph /  1.6km/h 6.0mph /  9.7km/h 87% 0.00in /  0mm
03:19 64.1 °F /  17.8 °C 60.2 °F /  15.7 °C 30.11in /  1019.5hPa SSW 2.0mph /  3.2km/h 5.0mph /  8km/h 87% 0.00in /  0mm
03:24 64.1 °F /  17.8 °C 60.2 °F /  15.7 °C 30.11in /  1019.5hPa SW 1.0mph /  1.6km/h 5.0mph /  8km/h 87% 0.00in /  0mm
03:29 64.0 °F /  17.8 °C 60.1 °F /  15.6 °C 30.11in /  1019.5hPa SW 1.0mph /  1.6km/h 4.0mph /  6.4km/h 87% 0.00in /  0mm
03:34 64.1 °F /  17.8 °C 60.2 °F /  15.7 °C 30.11in /  1019.5hPa SW 3.0mph /  4.8km/h 6.0mph /  9.7km/h 87% 0.00in /  0mm
03:39 64.1 °F /  17.8 °C 60.2 °F /  15.7 °C 30.11in /  1019.5hPa Calm   5.0mph /  8km/h 87% 0.00in /  0mm
03:44 64.0 °F /  17.8 °C 59.7 °F /  15.4 °C 30.11in /  1019.5hPa SSW 3.0mph /  4.8km/h 3.0mph /  4.8km/h 86% 0.00in /  0mm
03:49 63.9 °F /  17.7 °C 59.6 °F /  15.3 °C 30.11in /  1019.5hPa Calm   3.0mph /  4.8km/h 86% 0.00in /  0mm
03:54 63.7 °F /  17.6 °C 59.4 °F /  15.2 °C 30.11in /  1019.5hPa Calm   3.0mph /  4.8km/h 86% 0.00in /  0mm
03:59 63.8 °F /  17.7 °C 59.5 °F /  15.3 °C 30.12in /  1019.9hPa Calm   4.0mph /  6.4km/h 86% 0.00in /  0mm
04:04 63.6 °F /  17.6 °C 59.3 °F /  15.2 °C 30.12in /  1019.9hPa Calm   4.0mph /  6.4km/h 86% 0.00in /  0mm
04:09 63.6 °F /  17.6 °C 59.3 °F /  15.2 °C 30.12in /  1019.9hPa Calm     86% 0.00in /  0mm
04:14 63.5 °F /  17.5 °C 58.9 °F /  14.9 °C 30.12in /  1019.9hPa Calm     85% 0.00in /  0mm
04:19 63.4 °F /  17.4 °C 58.8 °F /  14.9 °C 30.12in /  1019.9hPa Calm     85% 0.00in /  0mm
04:24 63.2 °F /  17.3 °C 58.6 °F /  14.8 °C 30.12in /  1019.9hPa Calm     85% 0.00in /  0mm
04:29 63.1 °F /  17.3 °C 58.5 °F /  14.7 °C 30.12in /  1019.9hPa Calm     85% 0.00in /  0mm
04:34 62.9 °F /  17.2 °C 58.3 °F /  14.6 °C 30.12in /  1019.9hPa Calm     85% 0.00in /  0mm
04:39 62.7 °F /  17.1 °C 58.1 °F /  14.5 °C 30.12in /  1019.9hPa Calm     85% 0.00in /  0mm
04:44 62.7 °F /  17.1 °C 58.1 °F /  14.5 °C 30.12in /  1019.9hPa Calm     85% 0.00in /  0mm
04:49 62.8 °F /  17.1 °C 58.2 °F /  14.6 °C 30.12in /  1019.9hPa Calm     85% 0.00in /  0mm
04:54 62.8 °F /  17.1 °C 57.9 °F /  14.4 °C 30.12in /  1019.9hPa Calm     84% 0.00in /  0mm
05:04 62.7 °F /  17.1 °C 57.8 °F /  14.3 °C 30.12in /  1019.9hPa Calm   4.0mph /  6.4km/h 84% 0.00in /  0mm
05:09 62.7 °F /  17.1 °C 57.5 °F /  14.2 °C 30.12in /  1019.9hPa SW 1.0mph /  1.6km/h 4.0mph /  6.4km/h 83% 0.00in /  0mm
05:14 62.6 °F /  17 °C 57.4 °F /  14.1 °C 30.13in /  1020.2hPa SW 1.0mph /  1.6km/h 5.0mph /  8km/h 83% 0.00in /  0mm
05:19 62.6 °F /  17 °C 57.4 °F /  14.1 °C 30.13in /  1020.2hPa SW 2.0mph /  3.2km/h 3.0mph /  4.8km/h 83% 0.00in /  0mm
05:24 62.5 °F /  16.9 °C 56.9 °F /  13.8 °C 30.13in /  1020.2hPa SW 2.0mph /  3.2km/h 4.0mph /  6.4km/h 82% 0.00in /  0mm
05:29 62.4 °F /  16.9 °C 56.8 °F /  13.8 °C 30.13in /  1020.2hPa Calm   4.0mph /  6.4km/h 82% 0.00in /  0mm
05:34 62.3 °F /  16.8 °C 56.7 °F /  13.7 °C 30.13in /  1020.2hPa SW 1.0mph /  1.6km/h 3.0mph /  4.8km/h 82% 0.00in /  0mm
05:39 62.2 °F /  16.8 °C 56.6 °F /  13.7 °C 30.13in /  1020.2hPa SW 1.0mph /  1.6km/h 3.0mph /  4.8km/h 82% 0.00in /  0mm
05:44 62.2 °F /  16.8 °C 56.6 °F /  13.7 °C 30.13in /  1020.2hPa Calm   2.0mph /  3.2km/h 82% 0.00in /  0mm
05:49 62.1 °F /  16.7 °C 56.5 °F /  13.6 °C 30.14in /  1020.5hPa SW 1.0mph /  1.6km/h 3.0mph /  4.8km/h 82% 0.00in /  0mm
05:54 62.1 °F /  16.7 °C 56.5 °F /  13.6 °C 30.13in /  1020.2hPa SSW 2.0mph /  3.2km/h 4.0mph /  6.4km/h 82% 0.00in /  0mm
05:59 62.1 °F /  16.7 °C 56.2 °F /  13.4 °C 30.14in /  1020.5hPa SSW 2.0mph /  3.2km/h 3.0mph /  4.8km/h 81% 0.00in /  0mm
06:04 62.1 °F /  16.7 °C 56.2 °F /  13.4 °C 30.14in /  1020.5hPa SSW 1.0mph /  1.6km/h 4.0mph /  6.4km/h 81% 0.00in /  0mm
06:09 62.1 °F /  16.7 °C 55.9 °F /  13.3 °C 30.14in /  1020.5hPa SSW 2.0mph /  3.2km/h 5.0mph /  8km/h 80% 0.00in /  0mm
06:14 62.0 °F /  16.7 °C 55.8 °F /  13.2 °C 30.14in /  1020.5hPa SSW 1.0mph /  1.6km/h 5.0mph /  8km/h 80% 0.00in /  0mm
06:19 62.0 °F /  16.7 °C 55.8 °F /  13.2 °C 30.14in /  1020.5hPa Calm     80% 0.00in /  0mm
06:24 61.9 °F /  16.6 °C 55.7 °F /  13.2 °C 30.14in /  1020.5hPa Calm     80% 0.00in /  0mm
06:29 61.8 °F /  16.6 °C 55.6 °F /  13.1 °C 30.14in /  1020.5hPa Calm     80% 0.00in /  0mm
06:34 61.9 °F /  16.6 °C 55.3 °F /  12.9 °C 30.14in /  1020.5hPa Calm     79% 0.00in /  0mm
06:39 61.9 °F /  16.6 °C 55.3 °F /  12.9 °C 30.14in /  1020.5hPa Calm     79% 0.00in /  0mm
06:44 61.9 °F /  16.6 °C 55.3 °F /  12.9 °C 30.14in /  1020.5hPa Calm     79% 0.00in /  0mm
06:49 61.9 °F /  16.6 °C 55.3 °F /  12.9 °C 30.15in /  1020.9hPa Calm     79% 0.00in /  0mm
06:54 62.1 °F /  16.7 °C 55.5 °F /  13.1 °C 30.15in /  1020.9hPa Calm     79% 0.00in /  0mm
06:59 62.3 °F /  16.8 °C 55.7 °F /  13.2 °C 30.15in /  1020.9hPa Calm     79% 0.00in /  0mm
07:04 62.5 °F /  16.9 °C 55.5 °F /  13.1 °C 30.15in /  1020.9hPa Calm     78% 0.00in /  0mm
07:09 62.9 °F /  17.2 °C 55.9 °F /  13.3 °C 30.15in /  1020.9hPa Calm     78% 0.00in /  0mm
07:14 63.2 °F /  17.3 °C 55.9 °F /  13.3 °C 30.15in /  1020.9hPa Calm     77% 0.00in /  0mm
07:19 63.5 °F /  17.5 °C 56.2 °F /  13.4 °C 30.15in /  1020.9hPa Calm   3.0mph /  4.8km/h 77% 0.00in /  0mm
07:24 63.9 °F /  17.7 °C 56.5 °F /  13.6 °C 30.15in /  1020.9hPa Calm     77% 0.00in /  0mm
07:29 64.4 °F /  18 °C 56.3 °F /  13.5 °C 30.15in /  1020.9hPa SSW 2.0mph /  3.2km/h 3.0mph /  4.8km/h 75% 0.00in /  0mm
07:34 64.8 °F /  18.2 °C 56.3 °F /  13.5 °C 30.15in /  1020.9hPa SSW 2.0mph /  3.2km/h 4.0mph /  6.4km/h 74% 0.00in /  0mm
07:39 65.2 °F /  18.4 °C 56.7 °F /  13.7 °C 30.15in /  1020.9hPa SSW 2.0mph /  3.2km/h 5.0mph /  8km/h 74% 0.00in /  0mm
07:44 65.6 °F /  18.7 °C 56.7 °F /  13.7 °C 30.15in /  1020.9hPa SSW 2.0mph /  3.2km/h 5.0mph /  8km/h 73% 0.00in /  0mm
07:49 66.1 °F /  18.9 °C 56.8 °F /  13.8 °C 30.15in /  1020.9hPa SSW 2.0mph /  3.2km/h 6.0mph /  9.7km/h 72% 0.00in /  0mm
07:54 66.4 °F /  19.1 °C 56.7 °F /  13.7 °C 30.15in /  1020.9hPa SSW 3.0mph /  4.8km/h 6.0mph /  9.7km/h 71% 0.00in /  0mm
07:59 66.8 °F /  19.3 °C 57.5 °F /  14.2 °C 30.15in /  1020.9hPa SSW 3.0mph /  4.8km/h 6.0mph /  9.7km/h 72% 0.00in /  0mm
08:04 67.1 °F /  19.5 °C 57.0 °F /  13.9 °C 30.15in /  1020.9hPa SSW 3.0mph /  4.8km/h 6.0mph /  9.7km/h 70% 0.00in /  0mm
08:09 67.4 °F /  19.7 °C 57.3 °F /  14.1 °C 30.15in /  1020.9hPa SW 3.0mph /  4.8km/h 6.0mph /  9.7km/h 70% 0.00in /  0mm
08:14 67.1 °F /  19.5 °C 57.0 °F /  13.9 °C 30.16in /  1021.2hPa SW 2.0mph /  3.2km/h 7.0mph /  11.3km/h 70% 0.00in /  0mm
08:19 67.0 °F /  19.4 °C 56.9 °F /  13.8 °C 30.16in /  1021.2hPa SW 1.0mph /  1.6km/h 6.0mph /  9.7km/h 70% 0.00in /  0mm
08:24 67.1 °F /  19.5 °C 57.0 °F /  13.9 °C 30.16in /  1021.2hPa SSW 5.0mph /  8km/h 5.0mph /  8km/h 70% 0.00in /  0mm
08:29 67.7 °F /  19.8 °C 57.6 °F /  14.2 °C 30.16in /  1021.2hPa SW 2.0mph /  3.2km/h 5.0mph /  8km/h 70% 0.00in /  0mm
08:34 68.3 °F /  20.2 °C 57.7 °F /  14.3 °C 30.16in /  1021.2hPa SW 1.0mph /  1.6km/h 4.0mph /  6.4km/h 69% 0.00in /  0mm
08:39 69.0 °F /  20.6 °C 58.8 °F /  14.9 °C 30.16in /  1021.2hPa Calm   6.0mph /  9.7km/h 70% 0.00in /  0mm
08:44 69.5 °F /  20.8 °C 58.1 °F /  14.5 °C 30.16in /  1021.2hPa SW 2.0mph /  3.2km/h 6.0mph /  9.7km/h 67% 0.00in /  0mm
08:49 69.8 °F /  21 °C 58.3 °F /  14.6 °C 30.16in /  1021.2hPa SW 3.0mph /  4.8km/h 6.0mph /  9.7km/h 67% 0.00in /  0mm
08:54 70.3 °F /  21.3 °C 58.4 °F /  14.7 °C 30.16in /  1021.2hPa SW 3.0mph /  4.8km/h 7.0mph /  11.3km/h 66% 0.00in /  0mm
08:59 70.6 °F /  21.4 °C 59.1 °F /  15.1 °C 30.16in /  1021.2hPa SW 3.0mph /  4.8km/h 7.0mph /  11.3km/h 67% 0.00in /  0mm
09:04 71.1 °F /  21.7 °C 58.7 °F /  14.8 °C 30.16in /  1021.2hPa SW 2.0mph /  3.2km/h 7.0mph /  11.3km/h 65% 0.00in /  0mm
09:09 71.5 °F /  21.9 °C 58.7 °F /  14.8 °C 30.16in /  1021.2hPa SSW 3.0mph /  4.8km/h 9.0mph /  14.5km/h 64% 0.00in /  0mm
09:14 71.4 °F /  21.9 °C 58.1 °F /  14.5 °C 30.17in /  1021.6hPa SW 2.0mph /  3.2km/h 11.0mph /  17.7km/h 63% 0.00in /  0mm
09:19 71.8 °F /  22.1 °C 58.5 °F /  14.7 °C 30.17in /  1021.6hPa SW 4.0mph /  6.4km/h 11.0mph /  17.7km/h 63% 0.00in /  0mm
09:24 72.1 °F /  22.3 °C 58.8 °F /  14.9 °C 30.17in /  1021.6hPa SW 5.0mph /  8km/h 8.0mph /  12.9km/h 63% 0.00in /  0mm
09:29 72.3 °F /  22.4 °C 59.0 °F /  15 °C 30.17in /  1021.6hPa WSW 5.0mph /  8km/h 9.0mph /  14.5km/h 63% 0.00in /  0mm
09:34 72.9 °F /  22.7 °C 59.6 °F /  15.3 °C 30.17in /  1021.6hPa SW 4.0mph /  6.4km/h 9.0mph /  14.5km/h 63% 0.00in /  0mm
09:39 72.7 °F /  22.6 °C 59.4 °F /  15.2 °C 30.17in /  1021.6hPa SSW 5.0mph /  8km/h 9.0mph /  14.5km/h 63% 0.00in /  0mm
09:44 72.1 °F /  22.3 °C 58.4 °F /  14.7 °C 30.17in /  1021.6hPa SSW 4.0mph /  6.4km/h 9.0mph /  14.5km/h 62% 0.00in /  0mm
09:49 71.9 °F /  22.2 °C 58.6 °F /  14.8 °C 30.17in /  1021.6hPa SW 5.0mph /  8km/h 11.0mph /  17.7km/h 63% 0.00in /  0mm
09:54 72.8 °F /  22.7 °C 59.9 °F /  15.5 °C 30.17in /  1021.6hPa SW 5.0mph /  8km/h 11.0mph /  17.7km/h 64% 0.00in /  0mm
09:59 73.0 °F /  22.8 °C 59.7 °F /  15.4 °C 30.17in /  1021.6hPa SW 5.0mph /  8km/h 11.0mph /  17.7km/h 63% 0.00in /  0mm
10:04 72.9 °F /  22.7 °C 59.6 °F /  15.3 °C 30.17in /  1021.6hPa WSW 5.0mph /  8km/h 11.0mph /  17.7km/h 63% 0.00in /  0mm
10:09 73.1 °F /  22.8 °C 59.8 °F /  15.4 °C 30.17in /  1021.6hPa SW 3.0mph /  4.8km/h 11.0mph /  17.7km/h 63% 0.00in /  0mm
10:14 73.4 °F /  23 °C 59.6 °F /  15.3 °C 30.17in /  1021.6hPa WSW 6.0mph /  9.7km/h 14.0mph /  22.5km/h 62% 0.00in /  0mm
10:19 73.5 °F /  23.1 °C 59.7 °F /  15.4 °C 30.17in /  1021.6hPa SW 9.0mph /  14.5km/h 13.0mph /  20.9km/h 62% 0.00in /  0mm
10:24 73.5 °F /  23.1 °C 60.1 °F /  15.6 °C 30.17in /  1021.6hPa SW 6.0mph /  9.7km/h 13.0mph /  20.9km/h 63% 0.00in /  0mm
10:29 73.7 °F /  23.2 °C 60.3 °F /  15.7 °C 30.17in /  1021.6hPa WSW 9.0mph /  14.5km/h 10.0mph /  16.1km/h 63% 0.00in /  0mm
10:34 73.7 °F /  23.2 °C 60.3 °F /  15.7 °C 30.17in /  1021.6hPa West 12.0mph /  19.3km/h 15.0mph /  24.1km/h 63% 0.00in /  0mm
10:39 74.1 °F /  23.4 °C 61.1 °F /  16.2 °C 30.17in /  1021.6hPa WSW 7.0mph /  11.3km/h 15.0mph /  24.1km/h 64% 0.00in /  0mm
10:44 74.4 °F /  23.6 °C 61.4 °F /  16.3 °C 30.17in /  1021.6hPa SW 9.0mph /  14.5km/h 12.0mph /  19.3km/h 64% 0.00in /  0mm
10:49 74.3 °F /  23.5 °C 61.3 °F /  16.3 °C 30.17in /  1021.6hPa WSW 4.0mph /  6.4km/h 11.0mph /  17.7km/h 64% 0.00in /  0mm
10:54 74.8 °F /  23.8 °C 61.4 °F /  16.3 °C 30.17in /  1021.6hPa WSW 7.0mph /  11.3km/h 14.0mph /  22.5km/h 63% 0.00in /  0mm
10:59 74.8 °F /  23.8 °C 61.8 °F /  16.6 °C 30.17in /  1021.6hPa WSW 6.0mph /  9.7km/h 14.0mph /  22.5km/h 64% 0.00in /  0mm
11:04 74.7 °F /  23.7 °C 61.7 °F /  16.5 °C 30.17in /  1021.6hPa WSW 7.0mph /  11.3km/h 15.0mph /  24.1km/h 64% 0.00in /  0mm
11:09 75.1 °F /  23.9 °C 62.1 °F /  16.7 °C 30.17in /  1021.6hPa WSW 7.0mph /  11.3km/h 16.0mph /  25.7km/h 64% 0.00in /  0mm
11:14 74.9 °F /  23.8 °C 62.3 °F /  16.8 °C 30.17in /  1021.6hPa WSW 7.0mph /  11.3km/h 16.0mph /  25.7km/h 65% 0.00in /  0mm
11:19 75.1 °F /  23.9 °C 62.1 °F /  16.7 °C 30.17in /  1021.6hPa WSW 7.0mph /  11.3km/h 16.0mph /  25.7km/h 64% 0.00in /  0mm
11:24 75.2 °F /  24 °C 62.6 °F /  17 °C 30.17in /  1021.6hPa WSW 7.0mph /  11.3km/h 13.0mph /  20.9km/h 65% 0.00in /  0mm
11:29 75.3 °F /  24.1 °C 62.7 °F /  17.1 °C 30.17in /  1021.6hPa WSW 7.0mph /  11.3km/h 15.0mph /  24.1km/h 65% 0.00in /  0mm
11:34 75.5 °F /  24.2 °C 63.3 °F /  17.4 °C 30.17in /  1021.6hPa SSW 4.0mph /  6.4km/h 12.0mph /  19.3km/h 66% 0.00in /  0mm
11:39 76.2 °F /  24.6 °C 63.6 °F /  17.6 °C 30.17in /  1021.6hPa SSW 7.0mph /  11.3km/h 13.0mph /  20.9km/h 65% 0.00in /  0mm
11:44 76.0 °F /  24.4 °C 62.9 °F /  17.2 °C 30.17in /  1021.6hPa SW 7.0mph /  11.3km/h 15.0mph /  24.1km/h 64% 0.00in /  0mm
11:49 75.9 °F /  24.4 °C 63.3 °F /  17.4 °C 30.17in /  1021.6hPa SW 8.0mph /  12.9km/h 13.0mph /  20.9km/h 65% 0.00in /  0mm
11:54 75.7 °F /  24.3 °C 63.1 °F /  17.3 °C 30.17in /  1021.6hPa West 5.0mph /  8km/h 19.0mph /  30.6km/h 65% 0.00in /  0mm
11:59 76.5 °F /  24.7 °C 63.9 °F /  17.7 °C 30.17in /  1021.6hPa SW 8.0mph /  12.9km/h 19.0mph /  30.6km/h 65% 0.00in /  0mm
12:04 76.7 °F /  24.8 °C 64.0 °F /  17.8 °C 30.17in /  1021.6hPa WSW 6.0mph /  9.7km/h 14.0mph /  22.5km/h 65% 0.00in /  0mm
12:09 77.0 °F /  25 °C 65.6 °F /  18.7 °C 30.17in /  1021.6hPa WSW 6.0mph /  9.7km/h 13.0mph /  20.9km/h 68% 0.00in /  0mm
12:14 77.0 °F /  25 °C 63.9 °F /  17.7 °C 30.17in /  1021.6hPa WSW 6.0mph /  9.7km/h 15.0mph /  24.1km/h 64% 0.00in /  0mm
12:19 76.2 °F /  24.6 °C 63.6 °F /  17.6 °C 30.17in /  1021.6hPa WSW 7.0mph /  11.3km/h 15.0mph /  24.1km/h 65% 0.00in /  0mm
12:24 76.6 °F /  24.8 °C 64.8 °F /  18.2 °C 30.17in /  1021.6hPa WSW 7.0mph /  11.3km/h 15.0mph /  24.1km/h 67% 0.00in /  0mm
12:29 76.4 °F /  24.7 °C 63.8 °F /  17.7 °C 30.17in /  1021.6hPa SW 6.0mph /  9.7km/h 15.0mph /  24.1km/h 65% 0.00in /  0mm
12:34 76.5 °F /  24.7 °C 64.3 °F /  17.9 °C 30.17in /  1021.6hPa WSW 7.0mph /  11.3km/h 15.0mph /  24.1km/h 66% 0.00in /  0mm
12:39 76.4 °F /  24.7 °C 64.6 °F /  18.1 °C 30.17in /  1021.6hPa West 5.0mph /  8km/h 16.0mph /  25.7km/h 67% 0.00in /  0mm
12:44 76.6 °F /  24.8 °C 64.8 °F /  18.2 °C 30.17in /  1021.6hPa SW 9.0mph /  14.5km/h 14.0mph /  22.5km/h 67% 0.00in /  0mm
12:49 76.9 °F /  24.9 °C 64.7 °F /  18.2 °C 30.17in /  1021.6hPa South 8.0mph /  12.9km/h 12.0mph /  19.3km/h 66% 0.00in /  0mm
12:54 77.1 °F /  25.1 °C 65.3 °F /  18.5 °C 30.17in /  1021.6hPa West 5.0mph /  8km/h 14.0mph /  22.5km/h 67% 0.00in /  0mm
12:59 77.3 °F /  25.2 °C 65.1 °F /  18.4 °C 30.17in /  1021.6hPa SW 6.0mph /  9.7km/h 12.0mph /  19.3km/h 66% 0.00in /  0mm
13:04 77.1 °F /  25.1 °C 64.9 °F /  18.3 °C 30.17in /  1021.6hPa WSW 7.0mph /  11.3km/h 14.0mph /  22.5km/h 66% 0.00in /  0mm
13:09 77.0 °F /  25 °C 64.8 °F /  18.2 °C 30.17in /  1021.6hPa WSW 7.0mph /  11.3km/h 16.0mph /  25.7km/h 66% 0.00in /  0mm
13:14 77.8 °F /  25.4 °C 66.4 °F /  19.1 °C 30.16in /  1021.2hPa WSW 6.0mph /  9.7km/h 16.0mph /  25.7km/h 68% 0.00in /  0mm
13:19 77.6 °F /  25.3 °C 64.9 °F /  18.3 °C 30.16in /  1021.2hPa WSW 6.0mph /  9.7km/h 13.0mph /  20.9km/h 65% 0.00in /  0mm
13:24 77.3 °F /  25.2 °C 64.6 °F /  18.1 °C 30.17in /  1021.6hPa WSW 7.0mph /  11.3km/h 14.0mph /  22.5km/h 65% 0.00in /  0mm
13:29 77.3 °F /  25.2 °C 63.7 °F /  17.6 °C 30.16in /  1021.2hPa WSW 7.0mph /  11.3km/h 14.0mph /  22.5km/h 63% 0.00in /  0mm
13:34 77.2 °F /  25.1 °C 64.5 °F /  18.1 °C 30.16in /  1021.2hPa SW 12.0mph /  19.3km/h 17.0mph /  27.4km/h 65% 0.00in /  0mm
13:39 77.3 °F /  25.2 °C 64.2 °F /  17.9 °C 30.16in /  1021.2hPa SW 6.0mph /  9.7km/h 16.0mph /  25.7km/h 64% 0.00in /  0mm
13:44 77.9 °F /  25.5 °C 64.3 °F /  17.9 °C 30.16in /  1021.2hPa WSW 7.0mph /  11.3km/h 13.0mph /  20.9km/h 63% 0.00in /  0mm
13:49 77.8 °F /  25.4 °C 65.1 °F /  18.4 °C 30.16in /  1021.2hPa SSW 6.0mph /  9.7km/h 14.0mph /  22.5km/h 65% 0.00in /  0mm
13:54 78.1 °F /  25.6 °C 64.9 °F /  18.3 °C 30.16in /  1021.2hPa SW 9.0mph /  14.5km/h 13.0mph /  20.9km/h 64% 0.00in /  0mm
13:59 77.9 °F /  25.5 °C 64.3 °F /  17.9 °C 30.16in /  1021.2hPa SW 6.0mph /  9.7km/h 16.0mph /  25.7km/h 63% 0.00in /  0mm
14:04 78.5 °F /  25.8 °C 64.9 °F /  18.3 °C 30.15in /  1020.9hPa WSW 7.0mph /  11.3km/h 13.0mph /  20.9km/h 63% 0.00in /  0mm
14:09 78.4 °F /  25.8 °C 63.4 °F /  17.4 °C 30.15in /  1020.9hPa WSW 7.0mph /  11.3km/h 13.0mph /  20.9km/h 60% 0.00in /  0mm
14:14 78.7 °F /  25.9 °C 64.1 °F /  17.8 °C 30.15in /  1020.9hPa SW 7.0mph /  11.3km/h 18.0mph /  29km/h 61% 0.00in /  0mm
14:19 78.3 °F /  25.7 °C 62.3 °F /  16.8 °C 30.15in /  1020.9hPa SW 8.0mph /  12.9km/h 18.0mph /  29km/h 58% 0.00in /  0mm
14:24 78.2 °F /  25.7 °C 62.2 °F /  16.8 °C 30.15in /  1020.9hPa SW 8.0mph /  12.9km/h 16.0mph /  25.7km/h 58% 0.00in /  0mm
14:29 78.5 °F /  25.8 °C 63.5 °F /  17.5 °C 30.15in /  1020.9hPa WSW 10.0mph /  16.1km/h 15.0mph /  24.1km/h 60% 0.00in /  0mm
14:34 78.7 °F /  25.9 °C 62.7 °F /  17.1 °C 30.15in /  1020.9hPa West 9.0mph /  14.5km/h 14.0mph /  22.5km/h 58% 0.00in /  0mm
14:39 78.6 °F /  25.9 °C 62.6 °F /  17 °C 30.15in /  1020.9hPa WSW 8.0mph /  12.9km/h 17.0mph /  27.4km/h 58% 0.00in /  0mm
14:44 79.0 °F /  26.1 °C 63.0 °F /  17.2 °C 30.15in /  1020.9hPa WSW 8.0mph /  12.9km/h 17.0mph /  27.4km/h 58% 0.00in /  0mm
14:49 79.1 °F /  26.2 °C 62.1 °F /  16.7 °C 30.15in /  1020.9hPa SW 7.0mph /  11.3km/h 18.0mph /  29km/h 56% 0.00in /  0mm
14:54 78.9 °F /  26.1 °C 62.9 °F /  17.2 °C 30.15in /  1020.9hPa SW 8.0mph /  12.9km/h 18.0mph /  29km/h 58% 0.00in /  0mm
14:59 79.4 °F /  26.3 °C 63.3 °F /  17.4 °C 30.15in /  1020.9hPa WNW 10.0mph /  16.1km/h 15.0mph /  24.1km/h 58% 0.00in /  0mm
15:04 79.2 °F /  26.2 °C 63.1 °F /  17.3 °C 30.15in /  1020.9hPa WSW 4.0mph /  6.4km/h 13.0mph /  20.9km/h 58% 0.00in /  0mm
15:09 79.4 °F /  26.3 °C 62.8 °F /  17.1 °C 30.15in /  1020.9hPa WSW 7.0mph /  11.3km/h 16.0mph /  25.7km/h 57% 0.00in /  0mm
15:14 79.0 °F /  26.1 °C 63.4 °F /  17.4 °C 30.15in /  1020.9hPa WSW 7.0mph /  11.3km/h 16.0mph /  25.7km/h 59% 0.00in /  0mm
15:19 80.1 °F /  26.7 °C 64.5 °F /  18.1 °C 30.15in /  1020.9hPa WSW 3.0mph /  4.8km/h 9.0mph /  14.5km/h 59% 0.00in /  0mm
15:24 80.2 °F /  26.8 °C 63.6 °F /  17.6 °C 30.15in /  1020.9hPa West 7.0mph /  11.3km/h 15.0mph /  24.1km/h 57% 0.00in /  0mm
15:29 79.4 °F /  26.3 °C 61.8 °F /  16.6 °C 30.15in /  1020.9hPa WSW 8.0mph /  12.9km/h 13.0mph /  20.9km/h 55% 0.00in /  0mm
15:34 79.5 °F /  26.4 °C 61.9 °F /  16.6 °C 30.15in /  1020.9hPa SSW 7.0mph /  11.3km/h 12.0mph /  19.3km/h 55% 0.00in /  0mm
15:39 79.9 °F /  26.6 °C 62.8 °F /  17.1 °C 30.15in /  1020.9hPa South 8.0mph /  12.9km/h 14.0mph /  22.5km/h 56% 0.00in /  0mm
15:44 80.1 °F /  26.7 °C 62.5 °F /  16.9 °C 30.15in /  1020.9hPa WSW 6.0mph /  9.7km/h 14.0mph /  22.5km/h 55% 0.00in /  0mm
15:49 80.3 °F /  26.8 °C 61.6 °F /  16.4 °C 30.14in /  1020.5hPa WSW 6.0mph /  9.7km/h 12.0mph /  19.3km/h 53% 0.00in /  0mm
15:54 79.8 °F /  26.6 °C 62.2 °F /  16.8 °C 30.14in /  1020.5hPa WSW 7.0mph /  11.3km/h 15.0mph /  24.1km/h 55% 0.00in /  0mm
15:59 79.7 °F /  26.5 °C 62.1 °F /  16.7 °C 30.14in /  1020.5hPa WSW 7.0mph /  11.3km/h 15.0mph /  24.1km/h 55% 0.00in /  0mm
16:04 79.9 °F /  26.6 °C 62.3 °F /  16.8 °C 30.14in /  1020.5hPa WSW 3.0mph /  4.8km/h 12.0mph /  19.3km/h 55% 0.00in /  0mm
16:09 80.1 °F /  26.7 °C 60.9 °F /  16.1 °C 30.14in /  1020.5hPa SW 5.0mph /  8km/h 14.0mph /  22.5km/h 52% 0.00in /  0mm
16:14 79.5 °F /  26.4 °C 60.9 °F /  16.1 °C 30.14in /  1020.5hPa WSW 7.0mph /  11.3km/h 14.0mph /  22.5km/h 53% 0.00in /  0mm
16:19 79.2 °F /  26.2 °C 61.1 °F /  16.2 °C 30.14in /  1020.5hPa WSW 8.0mph /  12.9km/h 15.0mph /  24.1km/h 54% 0.00in /  0mm
16:24 79.8 °F /  26.6 °C 62.7 °F /  17.1 °C 30.14in /  1020.5hPa WNW 9.0mph /  14.5km/h 12.0mph /  19.3km/h 56% 0.00in /  0mm
16:29 79.7 °F /  26.5 °C 61.6 °F /  16.4 °C 30.14in /  1020.5hPa WSW 8.0mph /  12.9km/h 14.0mph /  22.5km/h 54% 0.00in /  0mm
16:34 79.5 °F /  26.4 °C 62.4 °F /  16.9 °C 30.14in /  1020.5hPa WSW 6.0mph /  9.7km/h 12.0mph /  19.3km/h 56% 0.00in /  0mm
16:39 79.3 °F /  26.3 °C 61.7 °F /  16.5 °C 30.14in /  1020.5hPa WSW 8.0mph /  12.9km/h 14.0mph /  22.5km/h 55% 0.00in /  0mm
16:49 79.1 °F /  26.2 °C 61.5 °F /  16.4 °C 30.14in /  1020.5hPa WSW 7.0mph /  11.3km/h 14.0mph /  22.5km/h 55% 0.00in /  0mm
16:54 79.2 °F /  26.2 °C 62.1 °F /  16.7 °C 30.14in /  1020.5hPa WSW 6.0mph /  9.7km/h 14.0mph /  22.5km/h 56% 0.00in /  0mm
16:59 79.3 °F /  26.3 °C 62.2 °F /  16.8 °C 30.14in /  1020.5hPa WSW 6.0mph /  9.7km/h 13.0mph /  20.9km/h 56% 0.00in /  0mm
17:04 79.3 °F /  26.3 °C 62.2 °F /  16.8 °C 30.14in /  1020.5hPa SW 5.0mph /  8km/h 13.0mph /  20.9km/h 56% 0.00in /  0mm
17:09 79.1 °F /  26.2 °C 63.1 °F /  17.3 °C 30.15in /  1020.9hPa SW 7.0mph /  11.3km/h 14.0mph /  22.5km/h 58% 0.00in /  0mm
17:14 78.9 °F /  26.1 °C 63.8 °F /  17.7 °C 30.15in /  1020.9hPa SW 4.0mph /  6.4km/h 11.0mph /  17.7km/h 60% 0.00in /  0mm
17:19 79.3 °F /  26.3 °C 64.2 °F /  17.9 °C 30.14in /  1020.5hPa WSW 5.0mph /  8km/h 11.0mph /  17.7km/h 60% 0.00in /  0mm
17:24 79.0 °F /  26.1 °C 63.0 °F /  17.2 °C 30.15in /  1020.9hPa West 4.0mph /  6.4km/h 12.0mph /  19.3km/h 58% 0.00in /  0mm
17:29 78.4 °F /  25.8 °C 63.4 °F /  17.4 °C 30.14in /  1020.5hPa NNW 8.0mph /  12.9km/h 14.0mph /  22.5km/h 60% 0.00in /  0mm
17:34 78.0 °F /  25.6 °C 62.5 °F /  16.9 °C 30.14in /  1020.5hPa WSW 10.0mph /  16.1km/h 13.0mph /  20.9km/h 59% 0.00in /  0mm
17:39 77.8 °F /  25.4 °C 62.8 °F /  17.1 °C 30.14in /  1020.5hPa WSW 2.0mph /  3.2km/h 11.0mph /  17.7km/h 60% 0.00in /  0mm
17:44 77.9 °F /  25.5 °C 63.4 °F /  17.4 °C 30.14in /  1020.5hPa WSW 7.0mph /  11.3km/h 10.0mph /  16.1km/h 61% 0.00in /  0mm
17:49 78.0 °F /  25.6 °C 63.9 °F /  17.7 °C 30.14in /  1020.5hPa WSW 5.0mph /  8km/h 10.0mph /  16.1km/h 62% 0.00in /  0mm
17:54 77.9 °F /  25.5 °C 63.4 °F /  17.4 °C 30.14in /  1020.5hPa WSW 6.0mph /  9.7km/h 13.0mph /  20.9km/h 61% 0.00in /  0mm
17:59 77.7 °F /  25.4 °C 62.7 °F /  17.1 °C 30.14in /  1020.5hPa SW 6.0mph /  9.7km/h 11.0mph /  17.7km/h 60% 0.00in /  0mm
18:04 77.8 °F /  25.4 °C 63.7 °F /  17.6 °C 30.14in /  1020.5hPa West 3.0mph /  4.8km/h 11.0mph /  17.7km/h 62% 0.00in /  0mm
18:09 78.0 °F /  25.6 °C 63.0 °F /  17.2 °C 30.14in /  1020.5hPa NW 4.0mph /  6.4km/h 9.0mph /  14.5km/h 60% 0.00in /  0mm
18:14 77.7 °F /  25.4 °C 62.2 °F /  16.8 °C 30.14in /  1020.5hPa WSW 4.0mph /  6.4km/h 12.0mph /  19.3km/h 59% 0.00in /  0mm
18:19 78.0 °F /  25.6 °C 62.5 °F /  16.9 °C 30.14in /  1020.5hPa WSW 10.0mph /  16.1km/h 12.0mph /  19.3km/h 59% 0.00in /  0mm
18:24 77.4 °F /  25.2 °C 62.4 °F /  16.9 °C 30.14in /  1020.5hPa WSW 4.0mph /  6.4km/h 12.0mph /  19.3km/h 60% 0.00in /  0mm
18:29 77.4 °F /  25.2 °C 62.4 °F /  16.9 °C 30.14in /  1020.5hPa WSW 4.0mph /  6.4km/h 12.0mph /  19.3km/h 60% 0.00in /  0mm
18:34 77.1 °F /  25.1 °C 62.6 °F /  17 °C 30.14in /  1020.5hPa WSW 4.0mph /  6.4km/h 9.0mph /  14.5km/h 61% 0.00in /  0mm
18:39 76.7 °F /  24.8 °C 62.2 °F /  16.8 °C 30.14in /  1020.5hPa WSW 5.0mph /  8km/h 9.0mph /  14.5km/h 61% 0.00in /  0mm
18:44 76.6 °F /  24.8 °C 62.6 °F /  17 °C 30.14in /  1020.5hPa WSW 4.0mph /  6.4km/h 8.0mph /  12.9km/h 62% 0.00in /  0mm
18:49 76.4 °F /  24.7 °C 62.4 °F /  16.9 °C 30.14in /  1020.5hPa WNW 3.0mph /  4.8km/h 6.0mph /  9.7km/h 62% 0.00in /  0mm
18:54 76.4 °F /  24.7 °C 62.4 °F /  16.9 °C 30.14in /  1020.5hPa West 3.0mph /  4.8km/h 7.0mph /  11.3km/h 62% 0.00in /  0mm
18:59 76.3 °F /  24.6 °C 62.3 °F /  16.8 °C 30.14in /  1020.5hPa SSW 5.0mph /  8km/h 9.0mph /  14.5km/h 62% 0.00in /  0mm
19:04 76.0 °F /  24.4 °C 62.0 °F /  16.7 °C 30.14in /  1020.5hPa South 3.0mph /  4.8km/h 8.0mph /  12.9km/h 62% 0.00in /  0mm
19:09 75.9 °F /  24.4 °C 61.9 °F /  16.6 °C 30.15in /  1020.9hPa SW 4.0mph /  6.4km/h 10.0mph /  16.1km/h 62% 0.00in /  0mm
19:14 75.9 °F /  24.4 °C 62.4 °F /  16.9 °C 30.15in /  1020.9hPa WSW 4.0mph /  6.4km/h 6.0mph /  9.7km/h 63% 0.00in /  0mm
19:19 75.6 °F /  24.2 °C 61.7 °F /  16.5 °C 30.15in /  1020.9hPa SW 4.0mph /  6.4km/h 9.0mph /  14.5km/h 62% 0.00in /  0mm
19:24 75.5 °F /  24.2 °C 62.0 °F /  16.7 °C 30.15in /  1020.9hPa WSW 4.0mph /  6.4km/h 9.0mph /  14.5km/h 63% 0.00in /  0mm
19:29 75.3 °F /  24.1 °C 61.8 °F /  16.6 °C 30.15in /  1020.9hPa WSW 4.0mph /  6.4km/h 7.0mph /  11.3km/h 63% 0.00in /  0mm
19:34 75.0 °F /  23.9 °C 62.0 °F /  16.7 °C 30.15in /  1020.9hPa SW 3.0mph /  4.8km/h 7.0mph /  11.3km/h 64% 0.00in /  0mm
19:39 74.9 °F /  23.8 °C 61.9 °F /  16.6 °C 30.15in /  1020.9hPa SW 3.0mph /  4.8km/h 6.0mph /  9.7km/h 64% 0.00in /  0mm
19:44 74.6 °F /  23.7 °C 62.1 °F /  16.7 °C 30.15in /  1020.9hPa SW 4.0mph /  6.4km/h 8.0mph /  12.9km/h 65% 0.00in /  0mm
19:49 74.3 °F /  23.5 °C 62.6 °F /  17 °C 30.16in /  1021.2hPa SW 3.0mph /  4.8km/h 8.0mph /  12.9km/h 67% 0.00in /  0mm
19:54 74.0 °F /  23.3 °C 62.3 °F /  16.8 °C 30.15in /  1020.9hPa SW 3.0mph /  4.8km/h 5.0mph /  8km/h 67% 0.00in /  0mm
19:59 73.7 °F /  23.2 °C 62.1 °F /  16.7 °C 30.15in /  1020.9hPa SW 6.0mph /  9.7km/h 8.0mph /  12.9km/h 67% 0.00in /  0mm
20:04 73.6 °F /  23.1 °C 62.0 °F /  16.7 °C 30.15in /  1020.9hPa WSW 3.0mph /  4.8km/h 7.0mph /  11.3km/h 67% 0.00in /  0mm
20:09 73.4 °F /  23 °C 62.2 °F /  16.8 °C 30.15in /  1020.9hPa SW 5.0mph /  8km/h 7.0mph /  11.3km/h 68% 0.00in /  0mm
20:14 73.2 °F /  22.9 °C 62.0 °F /  16.7 °C 30.15in /  1020.9hPa SW 4.0mph /  6.4km/h 5.0mph /  8km/h 68% 0.00in /  0mm
20:19 73.0 °F /  22.8 °C 62.2 °F /  16.8 °C 30.15in /  1020.9hPa WSW 1.0mph /  1.6km/h 5.0mph /  8km/h 69% 0.00in /  0mm
20:24 72.6 °F /  22.6 °C 62.3 °F /  16.8 °C 30.15in /  1020.9hPa SW 2.0mph /  3.2km/h 5.0mph /  8km/h 70% 0.00in /  0mm
20:29 72.2 °F /  22.3 °C 62.3 °F /  16.8 °C 30.15in /  1020.9hPa SW 2.0mph /  3.2km/h 5.0mph /  8km/h 71% 0.00in /  0mm
20:34 72.2 °F /  22.3 °C 62.7 °F /  17.1 °C 30.16in /  1021.2hPa SSW 3.0mph /  4.8km/h 5.0mph /  8km/h 72% 0.00in /  0mm
20:39 72.1 °F /  22.3 °C 62.6 °F /  17 °C 30.16in /  1021.2hPa SW 3.0mph /  4.8km/h 6.0mph /  9.7km/h 72% 0.00in /  0mm
20:44 71.9 °F /  22.2 °C 62.4 °F /  16.9 °C 30.16in /  1021.2hPa SW 1.0mph /  1.6km/h 6.0mph /  9.7km/h 72% 0.00in /  0mm
20:49 71.7 °F /  22.1 °C 62.6 °F /  17 °C 30.16in /  1021.2hPa South 3.0mph /  4.8km/h 5.0mph /  8km/h 73% 0.00in /  0mm
20:54 71.5 °F /  21.9 °C 62.8 °F /  17.1 °C 30.16in /  1021.2hPa SSW 3.0mph /  4.8km/h 4.0mph /  6.4km/h 74% 0.00in /  0mm
20:59 71.3 °F /  21.8 °C 63.0 °F /  17.2 °C 30.16in /  1021.2hPa SSW 2.0mph /  3.2km/h 4.0mph /  6.4km/h 75% 0.00in /  0mm
21:04 71.2 °F /  21.8 °C 62.9 °F /  17.2 °C 30.16in /  1021.2hPa SW 3.0mph /  4.8km/h 5.0mph /  8km/h 75% 0.00in /  0mm
21:09 71.0 °F /  21.7 °C 63.1 °F /  17.3 °C 30.17in /  1021.6hPa SW 3.0mph /  4.8km/h 5.0mph /  8km/h 76% 0.00in /  0mm
21:14 70.9 °F /  21.6 °C 63.0 °F /  17.2 °C 30.17in /  1021.6hPa Calm   3.0mph /  4.8km/h 76% 0.00in /  0mm
21:19 70.7 °F /  21.5 °C 63.1 °F /  17.3 °C 30.17in /  1021.6hPa SW 1.0mph /  1.6km/h 4.0mph /  6.4km/h 77% 0.00in /  0mm
21:24 70.4 °F /  21.3 °C 62.8 °F /  17.1 °C 30.17in /  1021.6hPa Calm   3.0mph /  4.8km/h 77% 0.00in /  0mm
21:29 70.3 °F /  21.3 °C 63.1 °F /  17.3 °C 30.17in /  1021.6hPa SW 1.0mph /  1.6km/h 3.0mph /  4.8km/h 78% 0.00in /  0mm
21:34 70.1 °F /  21.2 °C 62.9 °F /  17.2 °C 30.17in /  1021.6hPa SW 1.0mph /  1.6km/h 3.0mph /  4.8km/h 78% 0.00in /  0mm
21:39 70.0 °F /  21.1 °C 63.2 °F /  17.3 °C 30.17in /  1021.6hPa Calm   2.0mph /  3.2km/h 79% 0.00in /  0mm
21:44 69.8 °F /  21 °C 63.0 °F /  17.2 °C 30.17in /  1021.6hPa Calm     79% 0.00in /  0mm
21:49 69.6 °F /  20.9 °C 63.2 °F /  17.3 °C 30.17in /  1021.6hPa Calm   3.0mph /  4.8km/h 80% 0.00in /  0mm
21:54 69.4 °F /  20.8 °C 63.3 °F /  17.4 °C 30.18in /  1021.9hPa SW 1.0mph /  1.6km/h 2.0mph /  3.2km/h 81% 0.00in /  0mm
21:59 69.2 °F /  20.7 °C 63.1 °F /  17.3 °C 30.18in /  1021.9hPa Calm   2.0mph /  3.2km/h 81% 0.00in /  0mm
22:04 69.0 °F /  20.6 °C 62.9 °F /  17.2 °C 30.17in /  1021.6hPa Calm   2.0mph /  3.2km/h 81% 0.00in /  0mm
22:09 68.9 °F /  20.5 °C 62.5 °F /  16.9 °C 30.18in /  1021.9hPa Calm   2.0mph /  3.2km/h 80% 0.00in /  0mm
22:14 68.7 °F /  20.4 °C 62.3 °F /  16.8 °C 30.17in /  1021.6hPa Calm   3.0mph /  4.8km/h 80% 0.00in /  0mm
22:19 68.6 °F /  20.3 °C 61.8 °F /  16.6 °C 30.18in /  1021.9hPa SW 1.0mph /  1.6km/h 3.0mph /  4.8km/h 79% 0.00in /  0mm
22:24 68.6 °F /  20.3 °C 61.8 °F /  16.6 °C 30.18in /  1021.9hPa SW 1.0mph /  1.6km/h 3.0mph /  4.8km/h 79% 0.00in /  0mm
22:29 68.4 °F /  20.2 °C 61.6 °F /  16.4 °C 30.18in /  1021.9hPa Calm   3.0mph /  4.8km/h 79% 0.00in /  0mm
22:34 68.3 °F /  20.2 °C 61.5 °F /  16.4 °C 30.18in /  1021.9hPa Calm   3.0mph /  4.8km/h 79% 0.00in /  0mm
22:39 68.1 °F /  20.1 °C 61.3 °F /  16.3 °C 30.18in /  1021.9hPa Calm     79% 0.00in /  0mm
22:44 68.0 °F /  20 °C 61.2 °F /  16.2 °C 30.18in /  1021.9hPa Calm   3.0mph /  4.8km/h 79% 0.00in /  0mm
22:49 67.8 °F /  19.9 °C 61.0 °F /  16.1 °C 30.18in /  1021.9hPa Calm   1.0mph /  1.6km/h 79% 0.00in /  0mm
22:54 67.6 °F /  19.8 °C 61.2 °F /  16.2 °C 30.18in /  1021.9hPa Calm     80% 0.00in /  0mm
22:59 67.5 °F /  19.7 °C 61.1 °F /  16.2 °C 30.18in /  1021.9hPa Calm     80% 0.00in /  0mm
23:04 67.1 °F /  19.5 °C 60.7 °F /  15.9 °C 30.18in /  1021.9hPa Calm     80% 0.00in /  0mm
23:09 67.0 °F /  19.4 °C 61.0 °F /  16.1 °C 30.18in /  1021.9hPa Calm     81% 0.00in /  0mm
23:15 66.9 °F /  19.4 °C 60.5 °F /  15.8 °C 30.18in /  1021.9hPa Calm     80% 0.00in /  0mm
23:24 66.2 °F /  19 °C 60.2 °F /  15.7 °C 30.18in /  1021.9hPa Calm     81% 0.00in /  0mm
23:29 66.1 °F /  18.9 °C 59.7 °F /  15.4 °C 30.18in /  1021.9hPa Calm     80% 0.00in /  0mm
23:34 65.9 °F /  18.8 °C 59.6 °F /  15.3 °C 30.19in /  1022.2hPa Calm     80% 0.00in /  0mm
23:39 65.8 °F /  18.8 °C 59.5 °F /  15.3 °C 30.19in /  1022.2hPa Calm   4.0mph /  6.4km/h 80% 0.00in /  0mm
23:44 65.9 °F /  18.8 °C 59.2 °F /  15.1 °C 30.18in /  1021.9hPa Calm   1.0mph /  1.6km/h 79% 0.00in /  0mm
23:49 65.8 °F /  18.8 °C 59.1 °F /  15.1 °C 30.18in /  1021.9hPa Calm   2.0mph /  3.2km/h 79% 0.00in /  0mm
23:54 65.6 °F /  18.7 °C 58.9 °F /  14.9 °C 30.18in /  1021.9hPa Calm     79% 0.00in /  0mm
23:59 65.4 °F /  18.6 °C 58.7 °F /  14.8 °C 30.18in /  1021.9hPa Calm   2.0mph /  3.2km/h 79% 0.00in /  0mm
Buffalo, New York, USA
Compliments of Weather Underground - 2.5 mb